Motte Rimrock Reserve, California Weather observations

Data are for 10 minute period ending at time listed.
 Day   Time   Solar   Ave.   Ave.  Ave.  Vector  Max.   Baro.   Total    
  of    of     Rad.   Air    Rel.  Wind   Wind   Wind  Press.  Precip.   
Year   Day            Temp.  Hum.  Speed  Dir.   Gust                    
2017   (PST)  Kw/m2    F      %     mph   deg.    mph    mb.     in.     
-------------------------------------------------------------------------
  54    9:10   0.49   47.5    49    4.8   311     8.4   948.7    0.00 
  54    9:20   0.52   47.4    48    4.7   314     7.5   948.7    0.00 
  54    9:30   0.54   47.8    46    6.0   304     9.3   948.7    0.00 
  54    9:40   0.57   47.9    44    6.2   296    10.3   948.7    0.00 
  54    9:50   0.59   48.3    42    7.0   286    10.7   948.7    0.00 
  54   10:00   0.62   48.9    40    7.6   264    11.0   948.8    0.00 
  54   10:10   0.64   49.1    40    5.7   254     9.3   948.8    0.00 
  54   10:20   0.66   49.1    40    8.2   275    12.1   948.8    0.00 
  54   10:30   0.68   49.8    40    7.2   267    12.1   948.7    0.00 
  54   10:40   0.69   49.6    39    7.5   275    12.0   948.7    0.00 
  54   10:50   0.70   50.0    41    6.2   300    10.1   948.7    0.00 
  54   11:00   0.72   51.1    39    5.2   280    10.2   948.6    0.00 
  54   11:10   0.73   50.5    38    6.1   280    11.0   948.6    0.00 
  54   11:20   0.74   51.3    38    7.7   266    13.2   948.5    0.00 
  54   11:30   0.74   51.3    36    4.9   266     9.1   948.5    0.00 
  54   11:40   0.75   52.2    37    6.1   281    12.0   948.3    0.00 
  54   11:50   0.75   51.5    38    8.1   308    13.5   948.2    0.00 
  54   12:00   0.76   52.3    39    7.0   306    11.5   948.2    0.00 
  54   12:10   0.76   52.0    37    9.8   299    14.5   948.1    0.00 
  54   12:20   0.75   52.3    36   10.3   304    14.6   948.0    0.00 
  54   12:30   0.75   52.0    34    8.7   318    11.9   948.0    0.00 
  54   12:40   0.75   52.1    31    8.3   331    14.6   947.8    0.00 
  54   12:50   0.75   52.2    31    8.3   300    13.8   947.7    0.00 
  54   13:00   0.74   52.6    29    6.2   332    11.6   947.6    0.00 
  54   13:10   0.73   53.2    31    4.7   300     7.9   947.5    0.00 
  54   13:20   0.71   53.3    32    6.5   325    11.7   947.5    0.00 
  54   13:30   0.70   53.0    33    5.1   301    12.6   947.4    0.00 
  54   13:40   0.69   53.7    31    2.6   334     6.5   947.3    0.00 
  54   13:50   0.67   53.9    34    4.7   308    10.4   947.3    0.00 
  54   14:00   0.65   54.6    34    5.1   245     8.4   947.3    0.00 
  54   14:10   0.60   54.4    34    4.7   273    11.8   947.3    0.00 
  54   14:20   0.60   53.6    33    5.6   304    11.5   947.1    0.00 
  54   14:30   0.58   54.2    32    1.9    92     5.0   947.1    0.00 
  54   14:40   0.56   54.6    34    5.3   301     9.0   947.1    0.00 
  54   14:50   0.53   53.8    35    6.3   276    10.4   947.1    0.00 
  54   15:00   0.50   53.7    35    7.2   271     9.7   947.1    0.00 
  54   15:10   0.48   53.4    35    6.9   299    11.8   947.1    0.00 
  54   15:20   0.44   53.1    34    6.0   306    11.2   947.2    0.00 
  54   15:30   0.41   53.5    33    5.6   284    12.0   947.3    0.00 
  54   15:40   0.38   53.2    33    6.8   284    13.8   947.3    0.00 
  54   15:50   0.34   53.1    34    9.4   286    16.3   947.3    0.00 
  54   16:00   0.31   53.0    35    9.1   298    13.8   947.3    0.00 
  54   16:10   0.27   52.4    37   11.8   290    15.6   947.1    0.00 
  54   16:20   0.24   52.1    40   12.1   293    17.3   947.1    0.00 
  54   16:30   0.20   51.5    41   12.2   293    14.8   947.1    0.00 
  54   16:40   0.17   51.2    43   10.2   286    13.7   947.1    0.00 
  54   16:50   0.14   50.7    44   12.0   280    16.3   947.2    0.00 
  54   17:00   0.10   49.9    45   11.8   271    14.8   947.1    0.00 
  54   17:10   0.07   49.4    47   10.6   271    13.9   947.1    0.00 
  54   17:20   0.05   48.9    46   11.3   276    14.2   947.0    0.00 
  54   17:30   0.02   48.2    49    9.5   271    12.5   947.1    0.00 
  54   17:40   0.00   47.1    53    7.4   276     9.6   947.2    0.00 
  54   17:50   0.00   46.2    55    7.9   281    10.9   947.2    0.00 
  54   18:00   0.00   45.9    55    9.7   291    12.2   947.2    0.00 
  54   18:10   0.00   45.8    55    9.8   293    12.3   947.3    0.00 
  54   18:20   0.00   45.3    56    9.2   292    11.9   947.4    0.00 
  54   18:30   0.00   45.2    56    7.7   284    10.5   947.5    0.00 
  54   18:40   0.00   43.9    60    6.8   273     9.6   947.7    0.00 
  54   18:50   0.00   44.7    55    4.0   222     8.2   947.8    0.00 
  54   19:00   0.00   45.1    56    3.2   105     4.4   947.9    0.00 
  54   19:10   0.00   44.8    59    4.5   151     6.9   947.9    0.00 
  54   19:20   0.00   43.8    62    3.5   184     5.4   948.1    0.00 
  54   19:30   0.00   43.8    62    3.5   194     4.7   948.3    0.00 
  54   19:40   0.00   43.9    62    3.4   191     5.0   948.5    0.00 
  54   19:50   0.00   43.6    62    3.3   206     4.4   948.6    0.00 
  54   20:00   0.00   43.6    62    2.9   196     4.2   948.7    0.00 
  54   20:10   0.00   43.6    62    1.7   188     2.3   948.9    0.00 
  54   20:20   0.00   43.3    62    2.0   190     3.0   949.0    0.00 
  54   20:30   0.00   42.8    63    2.9   178     3.7   949.2    0.00 
  54   20:40   0.00   43.0    63    3.3   146     5.5   949.3    0.00 
  54   20:50   0.00   42.3    67    5.3   110     7.5   949.4    0.00 
  54   21:00   0.00   41.6    73    7.8   112     9.2   949.4    0.00 
  54   21:10   0.00   41.2    74    8.0   120     9.6   949.4    0.00 
  54   21:20   0.00   40.6    76    8.9   123    10.2   949.5    0.00 
  54   21:30   0.00   40.7    76    8.1   116     9.3   949.5    0.00 
  54   21:40   0.00   40.5    76    7.7   120     9.2   949.5    0.00 
  54   21:50   0.00   40.1    77    7.8   123     9.9   949.6    0.00 
  54   22:00   0.00   40.1    77    8.3   119    10.0   949.6    0.00 
  54   22:10   0.00   39.9    78    8.6   119    10.0   949.6    0.00 
  54   22:20   0.00   40.1    77    6.3   119     8.7   949.7    0.00 
  54   22:30   0.00   39.7    78    5.5   125     7.1   949.8    0.00 
  54   22:40   0.00   39.5    78    7.1   124     8.7   949.7    0.00 
  54   22:50   0.00   39.4    78    5.7   129     7.0   949.8    0.00 
  54   23:00   0.00   39.6    77    4.5   125     6.0   949.9    0.00 
  54   23:10   0.00   39.6    78    6.5   114     8.3   950.0    0.00 
  54   23:20   0.00   39.5    78    7.6   121     9.1   950.0    0.00 
  54   23:30   0.00   39.2    78    5.9   131     7.7   950.1    0.00 
  54   23:40   0.00   38.8    79    5.2   143     6.4   950.2    0.00 
  54   23:50   0.00   38.5    80    5.0   148     6.2   950.3    0.00 
  55    0:00   0.00   38.5    80    3.3   154     4.9   950.4    0.00 
  55    0:10   0.00   38.2    80    5.1   139     6.6   950.5    0.00 
  55    0:20   0.00   38.7    79    6.3   138     7.3   950.4    0.00 
  55    0:30   0.00   38.5    79    6.2   137     7.8   950.3    0.00 
  55    0:40   0.00   38.7    78    6.3   136     7.5   950.3    0.00 
  55    0:50   0.00   38.5    78    6.1   137     7.2   950.3    0.00 
  55    1:00   0.00   38.8    78    5.7   138     6.6   950.3    0.00 
  55    1:10   0.00   38.9    77    5.3   133     6.0   950.2    0.00 
  55    1:20   0.00   38.7    78    5.8   138     6.5   950.2    0.00 
  55    1:30   0.00   38.3    78    4.9   143     5.6   950.3    0.00 
  55    1:40   0.00   38.4    78    5.4   134     5.8   950.2    0.00 
  55    1:50   0.00   38.2    79    3.9   142     5.3   950.2    0.00 
  55    2:00   0.00   38.4    79    3.0   146     3.5   950.2    0.00 
  55    2:10   0.00   38.4    79    3.3   138     3.7   950.2    0.00 
  55    2:20   0.00   38.3    79    3.5   144     3.9   950.2    0.00 
  55    2:30   0.00   38.3    78    3.0   149     3.5   950.3    0.00 
  55    2:40   0.00   38.4    78    3.5   152     3.9   950.2    0.00 
  55    2:50   0.00   38.1    79    3.2   153     3.6   950.1    0.00 
  55    3:00   0.00   37.6    80    4.0   154     4.3   949.9    0.00 
  55    3:10   0.00   38.0    80    3.8   166     4.5   949.9    0.00 
  55    3:20   0.00   37.8    80    4.0   180     4.3   949.8    0.00 
  55    3:30   0.00   37.5    81    3.9   175     4.5   949.7    0.00 
  55    3:40   0.00   37.6    81    3.5   186     4.3   949.7    0.00 
  55    3:50   0.00   37.2    82    4.8   200     5.4   949.9    0.00 
  55    4:00   0.00   36.9    83    4.2   211     5.3   950.0    0.00 
  55    4:10   0.00   37.9    80    2.6   207     3.7   949.9    0.00 
  55    4:20   0.00   38.4    78    1.4   164     3.0   949.8    0.00 
  55    4:30   0.00   38.4    78    2.6   135     3.1   949.8    0.00 
  55    4:40   0.00   36.7    82    4.0    60     4.8   949.9    0.00 
  55    4:50   0.00   35.5    87    4.4    49     5.0   949.8    0.00 
  55    5:00   0.00   36.7    84    2.4    78     3.2   950.0    0.00 
  55    5:10   0.00   38.2    78    2.3    83     4.2   950.1    0.00 
  55    5:20   0.00   37.5    80    2.4    53     4.2   950.1    0.00 
  55    5:30   0.00   38.2    78    0.2   161     0.8   950.0    0.00 
  55    5:40   0.00   38.2    78    0.0   162     0.4   950.0    0.00 
  55    5:50   0.00   38.1    78    0.0     0     0.0   950.1    0.00 
  55    6:00   0.00   37.8    79    0.8   160     1.4   950.1    0.00 
  55    6:10   0.00   37.5    79    1.5   161     1.8   950.2    0.00 
  55    6:20   0.00   37.4    80    2.1   162     2.5   950.5    0.00 
  55    6:30   0.00   37.3    80    1.0   174     2.0   950.7    0.00 
  55    6:40   0.01   37.2    81    0.1   174     0.6   950.8    0.00 
  55    6:50   0.04   38.5    77    0.8   174     1.4   950.8    0.00 
  55    7:00   0.06   39.8    74    1.6    37     2.9   951.0    0.00 
  55    7:10   0.09   40.7    72    1.5    24     2.5   951.1    0.00 
  55    7:20   0.12   42.0    69    0.1    21     0.7   951.2    0.00 
  55    7:30   0.16   43.3    71    1.6   166     2.9   951.3    0.00 
  55    7:40   0.19   41.7    76    2.5   102     3.9   951.4    0.00 
  55    7:50   0.23   41.2    76    0.6    53     2.9   951.6    0.00 
  55    8:00   0.26   43.4    72    1.4    34     2.7   951.7    0.00 
  55    8:10   0.29   42.7    74    3.8    40     6.4   951.7    0.00 
  55    8:20   0.33   42.6    75    3.0    42     5.8   951.8    0.00 
  55    8:30   0.37   43.2    72    3.2    62     4.7   952.0    0.00 
  55    8:40   0.40   43.8    70    3.1    67     4.7   952.0    0.00 
  55    8:50   0.43   45.0    69    2.4    63     4.2   952.0    0.00 
  55    9:00   0.46   45.8    67    2.4    57     3.9   952.0    0.00 

Return to Motte Rimrock Reserve graphs page.


Western Regional Climate Center,wrcc@dri.edu